Terminal Aerodrome Forecast
Issued by NWS Corpus Christi, TX

Home | Current Version | Previous Version | Text Only | Print | Product List | Glossary On
Versions: 1 2 3 4 5 6 7 8 9 10 11 12 13 14 15 16
000
FTUS44 KCRP 300545 CCA
TAFCRP
TAF COR
KCRP 300545Z 3006/3106 03010KT P6SM VCSH SCT025 BKN050 OVC150
      TEMPO 3006/3010 5SM TSRA BKN020CB OVC100
     FM301400 06009KT P6SM VCSH SCT015 BKN050
      TEMPO 3017/3020 VRB20G30KT 3SM TSRA BKN012CB OVC040
     FM302000 08014G19KT P6SM VCSH SCT035 BKN100
     FM310400 09009KT P6SM BKN025 OVC150=

USA.gov is the U.S. government's official web portal to all federal, state and local government web resources and services.